Time;durP1;ratioP1;P1;durP2;ratioP2;P2;SDS_P1;SDS_P2;PMS_P1;PMS_P2;Temp;Humidity;BMP_temperature;BMP_pressure;BME280_temperature;BME280_humidity;BME280_pressure;Samples;Min_cycle;Max_cycle;Signal;HPM_P1;HPM_P2
2023/02/19 00:01:28;;;;;;;8.25;7.55;;;9.00;99.90;;;9.76;100.00;98420.75;5155651;28;20286;-82
2023/02/19 00:04:04;;;;;;;9.38;8.68;;;9.00;99.90;;;9.77;100.00;98413.22;5165386;28;20294;-81
2023/02/19 00:06:37;;;;;;;8.60;7.90;;;9.00;99.90;;;9.77;100.00;98417.44;5162806;28;20302;-81
2023/02/19 00:09:11;;;;;;;8.93;8.23;;;9.00;99.90;;;9.75;100.00;98403.69;5163516;28;20227;-81
2023/02/19 00:11:46;;;;;;;8.85;8.15;;;8.90;99.90;;;9.72;100.00;98406.91;5158506;28;20284;-81
2023/02/19 00:14:21;;;;;;;8.18;7.47;;;8.90;99.90;;;9.67;100.00;98403.16;5159734;28;20202;-81
2023/02/19 00:16:56;;;;;;;8.40;7.80;;;8.90;99.90;;;9.66;100.00;98397.16;5158027;28;20251;-81
2023/02/19 00:19:29;;;;;;;7.80;7.20;;;8.90;99.90;;;9.75;100.00;98403.69;5155299;28;20207;-81
2023/02/19 00:22:02;;;;;;;8.10;7.50;;;8.90;99.90;;;9.72;100.00;98404.34;5151819;28;20255;-82
2023/02/19 00:24:35;;;;;;;8.32;7.63;;;8.90;99.90;;;9.76;100.00;98406.34;5148793;28;20286;-82
2023/02/19 00:27:09;;;;;;;8.60;7.93;;;8.80;99.90;;;9.73;100.00;98401.03;5148714;28;20728;-82
2023/02/19 00:29:42;;;;;;;9.25;8.55;;;8.90;99.90;;;9.68;100.00;98392.19;5157442;28;20239;-81
2023/02/19 00:32:16;;;;;;;9.65;8.85;;;8.90;99.90;;;9.73;100.00;98392.47;5155986;28;20221;-81
2023/02/19 00:34:50;;;;;;;10.55;9.65;;;8.90;99.90;;;9.70;100.00;98400.84;5158319;28;20202;-81
2023/02/19 00:37:23;;;;;;;10.82;9.93;;;8.90;99.90;;;9.70;100.00;98391.50;5144785;28;20656;-81
2023/02/19 00:39:56;;;;;;;10.25;9.38;;;8.90;99.90;;;9.70;100.00;98400.84;5150960;28;20208;-82
2023/02/19 00:42:30;;;;;;;9.82;9.02;;;8.90;99.90;;;9.69;100.00;98399.94;5152529;28;20782;-81
2023/02/19 00:45:03;;;;;;;10.05;9.25;;;8.90;99.90;;;9.67;100.00;98400.59;5152186;28;20294;-82
2023/02/19 00:47:38;;;;;;;11.68;10.60;;;8.90;99.90;;;9.64;100.00;98397.84;5151264;28;20208;-81
2023/02/19 00:50:11;;;;;;;11.27;10.38;;;8.90;99.90;;;9.66;100.00;98398.84;5149335;28;20320;-81
2023/02/19 00:52:44;;;;;;;12.40;11.43;;;8.90;99.90;;;9.68;100.00;98399.84;5153339;28;20399;-82
2023/02/19 00:55:18;;;;;;;12.05;11.05;;;8.90;99.90;;;9.66;100.00;98403.94;5164437;28;20280;-81
2023/02/19 00:57:51;;;;;;;11.63;10.63;;;8.90;99.90;;;9.69;100.00;98409.25;5149263;28;20320;-80
2023/02/19 01:00:24;;;;;;;11.65;10.68;;;8.90;99.90;;;9.68;100.00;98408.38;5148781;28;21074;-80
2023/02/19 01:02:59;;;;;;;11.20;10.18;;;8.90;99.90;;;9.76;100.00;98408.91;5150973;28;20626;-81
2023/02/19 01:05:32;;;;;;;11.60;10.60;;;8.90;99.90;;;9.70;100.00;98404.28;5157288;28;20202;-80
2023/02/19 01:08:05;;;;;;;11.32;10.43;;;8.90;99.90;;;9.70;100.00;98400.84;5159341;28;20638;-81
2023/02/19 01:10:38;;;;;;;11.57;10.57;;;8.80;99.90;;;9.68;100.00;98394.72;5164504;28;20325;-81
2023/02/19 01:13:12;;;;;;;10.43;9.63;;;8.80;99.90;;;9.74;100.00;98386.59;5159052;22;20274;-86
2023/02/19 01:15:45;;;;;;;11.48;10.57;;;8.80;99.90;;;9.65;100.00;98386.88;5144374;28;20609;-86
2023/02/19 01:18:19;;;;;;;11.55;10.45;;;8.80;99.90;;;9.66;100.00;98384.41;5139182;28;20254;-86
2023/02/19 01:20:52;;;;;;;11.18;10.27;;;8.80;99.90;;;9.65;100.00;98384.31;5144137;28;20263;-86
2023/02/19 01:23:26;;;;;;;11.85;10.75;;;8.80;99.90;;;9.62;100.00;98373.91;5136075;28;20292;-86
2023/02/19 01:25:59;;;;;;;10.48;9.57;;;8.80;99.90;;;9.60;100.00;98378.00;5137916;28;20262;-86
2023/02/19 01:28:32;;;;;;;12.63;11.32;;;8.80;99.90;;;9.56;100.00;98379.47;5143267;28;20227;-86
2023/02/19 01:31:11;;;;;;;11.38;10.48;;;8.80;99.90;;;9.60;100.00;98370.34;5139274;28;20232;-86
2023/02/19 01:33:47;;;;;;;10.95;10.05;;;8.80;99.90;;;9.57;100.00;98375.25;5140336;28;20214;-86
2023/02/19 01:36:21;;;;;;;9.93;9.13;;;8.80;99.90;;;9.56;100.00;98368.38;5138365;28;20234;-86
2023/02/19 01:38:54;;;;;;;12.23;11.13;;;8.80;99.90;;;9.55;100.00;98359.81;5139349;28;20585;-86
2023/02/19 01:41:27;;;;;;;11.13;10.10;;;8.80;99.90;;;9.54;100.00;98357.16;5136371;28;20240;-86
2023/02/19 01:44:06;;;;;;;11.38;10.32;;;8.80;99.90;;;9.57;100.00;98347.16;5135711;28;20207;-87
2023/02/19 01:46:41;;;;;;;10.70;9.80;;;8.80;99.90;;;9.58;100.00;98356.59;5142205;28;20282;-85
2023/02/19 01:49:23;;;;;;;10.88;9.98;;;8.80;99.90;;;9.59;100.00;98358.38;5139353;28;20204;-86
2023/02/19 01:52:01;;;;;;;11.07;10.17;;;8.80;99.90;;;9.52;100.00;98346.84;5130651;28;20232;-86
2023/02/19 01:54:38;;;;;;;10.52;9.73;;;8.80;99.90;;;9.54;100.00;98331.66;5139014;28;20254;-87
2023/02/19 01:57:17;;;;;;;11.48;10.52;;;8.80;99.90;;;9.53;100.00;98332.41;5147613;28;20299;-86
2023/02/19 01:59:54;;;;;;;11.65;10.65;;;8.80;99.90;;;9.55;100.00;98334.28;5142143;28;20742;-86
2023/02/19 02:02:27;;;;;;;10.75;9.95;;;8.80;99.90;;;9.57;100.00;98334.41;5139344;28;20239;-84
2023/02/19 02:05:04;;;;;;;10.90;9.95;;;8.80;99.90;;;9.54;100.00;98329.97;5137268;28;20223;-85
2023/02/19 02:10:28;;;;;;;10.63;9.63;;;8.70;99.90;;;9.58;100.00;98329.38;5144003;28;20310;-87
2023/02/19 02:13:01;;;;;;;9.60;8.80;;;8.80;99.90;;;9.54;100.00;98335.06;5143037;28;20216;-86
2023/02/19 02:15:47;;;;;;;10.75;9.73;;;8.80;99.90;;;9.50;100.00;98342.41;5139798;28;20704;-86
2023/02/19 02:18:32;;;;;;;10.55;9.65;;;8.80;99.90;;;9.55;100.00;98328.31;5142878;28;20238;-85
2023/02/19 02:21:42;;;;;;;10.70;9.80;;;8.80;99.90;;;9.59;100.00;98336.28;5142759;28;20635;-85
2023/02/19 02:24:41;;;;;;;10.40;9.55;;;8.80;99.90;;;9.50;100.00;98329.66;5138889;28;20242;-87
2023/02/19 02:27:44;;;;;;;11.20;10.13;;;8.70;99.90;;;9.50;100.00;98327.09;5139556;28;20590;-87
2023/02/19 02:30:28;;;;;;;10.10;9.30;;;8.80;99.90;;;9.63;100.00;98327.16;5139241;28;20294;-88
2023/02/19 02:33:14;;;;;;;9.50;8.70;;;8.80;99.90;;;9.60;100.00;98326.97;5140382;28;20242;-86
2023/02/19 02:35:51;;;;;;;9.85;8.95;;;8.90;99.90;;;9.51;100.00;98318.69;5141059;28;20224;-86
2023/02/19 02:38:32;;;;;;;10.48;9.57;;;8.70;99.90;;;9.53;100.00;98324.75;5140984;28;20562;-86
2023/02/19 02:41:06;;;;;;;9.52;8.65;;;8.80;99.90;;;9.56;100.00;98319.88;5141408;28;20236;-86
2023/02/19 02:43:40;;;;;;;9.88;9.02;;;8.80;99.90;;;9.45;100.00;98312.38;5131913;28;20208;-86
2023/02/19 02:46:20;;;;;;;10.50;9.60;;;8.80;99.90;;;9.38;100.00;98312.72;5138538;28;20234;-87
2023/02/19 02:48:57;;;;;;;9.05;8.35;;;8.70;99.90;;;9.45;100.00;98311.50;5134601;28;20291;-86
2023/02/19 02:51:34;;;;;;;9.05;8.35;;;8.70;99.90;;;9.50;100.00;98306.69;5144287;28;20700;-87
2023/02/19 02:57:02;;;;;;;9.18;8.35;;;8.80;99.90;;;9.51;100.00;98295.72;5145565;28;20211;-87
2023/02/19 02:59:39;;;;;;;9.07;8.32;;;8.70;99.90;;;9.41;100.00;98305.31;5145614;28;20295;-86
2023/02/19 03:02:17;;;;;;;8.35;7.75;;;8.70;99.90;;;9.46;100.00;98298.81;5146956;28;20214;-86
2023/02/19 03:07:54;;;;;;;8.70;7.97;;;8.70;99.90;;;9.43;100.00;98290.97;5139981;28;20204;-87
2023/02/19 03:10:33;;;;;;;9.40;8.30;;;8.70;99.90;;;9.51;100.00;98295.72;5144517;28;20200;-87
2023/02/19 03:19:20;;;;;;;8.60;7.90;;;8.80;99.90;;;9.46;100.00;98298.81;5144249;28;20625;-87
2023/02/19 03:21:59;;;;;;;9.20;8.40;;;8.70;99.90;;;9.39;100.00;98299.19;5144160;28;20200;-87
2023/02/19 03:27:30;;;;;;;8.20;7.60;;;8.80;99.90;;;9.48;100.00;98297.28;5142643;28;20279;-88
2023/02/19 03:30:10;;;;;;;8.38;7.68;;;8.70;99.90;;;9.46;100.00;98297.94;5140572;28;20300;-87
2023/02/19 03:32:49;;;;;;;8.32;7.63;;;8.70;99.90;;;9.41;100.00;98295.09;5142848;28;20234;-87
2023/02/19 03:35:27;;;;;;;8.13;7.43;;;8.70;99.90;;;9.42;100.00;98298.53;5142998;28;20888;-87
2023/02/19 03:38:07;;;;;;;7.77;7.17;;;8.80;99.90;;;9.50;100.00;98296.47;5133111;28;20196;-87
2023/02/19 03:40:53;;;;;;;7.50;6.90;;;8.70;99.90;;;9.50;100.00;98292.28;5142151;28;20192;-87
2023/02/19 03:43:35;;;;;;;7.43;6.82;;;8.80;99.90;;;9.42;100.00;98284.09;5141441;28;20725;-86
2023/02/19 03:46:14;;;;;;;7.80;7.20;;;8.80;99.90;;;9.47;100.00;98287.84;5142734;28;20255;-86
2023/02/19 03:48:56;;;;;;;7.05;6.53;;;8.80;99.90;;;9.44;100.00;98285.09;5143870;28;20204;-87
2023/02/19 03:51:38;;;;;;;7.22;6.72;;;8.80;99.90;;;9.56;100.00;98289.25;5140750;28;20307;-87
2023/02/19 03:54:19;;;;;;;6.40;6.00;;;8.90;99.90;;;9.44;100.00;98295.31;5146432;28;20756;-85
2023/02/19 03:56:58;;;;;;;6.10;5.60;;;8.80;99.90;;;9.43;100.00;98292.63;5142773;28;20335;-87
2023/02/19 03:59:38;;;;;;;6.43;5.95;;;8.80;99.90;;;9.41;100.00;98300.19;5133523;28;20201;-87
2023/02/19 04:02:16;;;;;;;6.38;5.88;;;8.80;99.90;;;9.46;100.00;98296.28;5142464;28;20295;-87
2023/02/19 04:04:54;;;;;;;6.33;5.83;;;8.80;99.90;;;9.36;100.00;98310.88;5140982;28;20250;-87
2023/02/19 04:07:34;;;;;;;6.23;5.83;;;8.80;99.90;;;9.31;100.00;98315.63;5139031;28;20774;-86
2023/02/19 04:10:08;;;;;;;6.27;5.77;;;8.70;99.90;;;9.35;100.00;98315.06;5142010;28;20576;-86
2023/02/19 04:12:50;;;;;;;6.10;5.70;;;8.80;99.90;;;9.41;100.00;98315.50;5139907;28;20220;-87
2023/02/19 04:15:29;;;;;;;5.40;5.00;;;8.70;99.90;;;9.39;100.00;98317.06;5142882;28;20755;-87
2023/02/19 04:18:07;;;;;;;6.23;5.57;;;8.80;99.90;;;9.50;100.00;98309.22;5142383;28;20204;-87
2023/02/19 04:20:45;;;;;;;5.28;4.88;;;8.80;99.90;;;9.47;100.00;98320.13;5140738;28;20299;-87
2023/02/19 04:23:23;;;;;;;5.40;5.00;;;8.80;99.90;;;9.43;100.00;98318.16;5142346;28;20207;-87
2023/02/19 04:26:00;;;;;;;4.70;4.40;;;8.80;99.90;;;9.53;100.00;98315.47;5142188;28;20240;-87
2023/02/19 04:28:34;;;;;;;4.82;4.53;;;8.80;99.90;;;9.53;100.00;98314.53;5139896;28;20208;-87
2023/02/19 04:31:07;;;;;;;4.80;4.47;;;8.90;99.90;;;9.44;100.00;98331.03;5143367;28;20210;-86
2023/02/19 04:33:41;;;;;;;4.83;4.43;;;8.70;99.90;;;9.46;100.00;98329.44;5141747;28;20211;-86
2023/02/19 04:36:14;;;;;;;4.97;4.47;;;8.80;99.90;;;9.49;100.00;98333.88;5142385;28;20290;-86
2023/02/19 04:38:48;;;;;;;4.70;4.40;;;8.80;99.90;;;9.51;100.00;98327.22;5137359;28;20251;-87
2023/02/19 04:41:22;;;;;;;4.43;4.13;;;8.80;99.90;;;9.49;100.00;98338.97;5141536;28;20254;-86
2023/02/19 04:43:55;;;;;;;4.10;3.80;;;8.80;99.90;;;9.48;100.00;98335.53;5142150;28;20285;-86
2023/02/19 04:46:28;;;;;;;4.00;3.77;;;8.80;99.90;;;9.44;100.00;98336.13;5142052;28;20203;-86
2023/02/19 04:49:01;;;;;;;5.38;4.45;;;8.80;99.90;;;9.52;100.00;98338.31;5139802;28;20212;-86
2023/02/19 04:51:34;;;;;;;4.50;4.10;;;8.80;99.90;;;9.59;100.00;98340.50;5141221;28;20310;-86
2023/02/19 04:54:09;;;;;;;4.10;3.80;;;8.80;99.90;;;9.58;100.00;98343.81;5142144;28;20771;-86
2023/02/19 04:56:42;;;;;;;4.28;3.97;;;8.80;99.90;;;9.43;100.00;98354.75;5137277;28;20555;-86
2023/02/19 04:59:15;;;;;;;4.55;4.25;;;8.80;99.90;;;9.45;100.00;98353.19;5137224;28;20191;-85
2023/02/19 05:01:48;;;;;;;4.55;4.22;;;8.80;99.90;;;9.47;100.00;98346.53;5134202;28;20243;-86
2023/02/19 05:04:22;;;;;;;4.30;4.00;;;8.80;99.90;;;9.53;100.00;98352.81;5142315;28;20731;-86
2023/02/19 05:06:55;;;;;;;3.97;3.67;;;8.80;99.90;;;9.35;100.00;98360.97;5136697;28;20239;-85
2023/02/19 05:09:30;;;;;;;4.07;3.87;;;8.80;99.90;;;9.41;100.00;98363.97;5143598;28;20319;-86
2023/02/19 05:12:04;;;;;;;4.17;3.77;;;8.70;99.90;;;9.41;100.00;98356.31;5139957;28;20223;-87
2023/02/19 05:14:37;;;;;;;3.77;3.57;;;8.70;99.90;;;9.51;100.00;98362.06;5141012;28;20224;-87
2023/02/19 05:17:10;;;;;;;3.53;3.33;;;8.80;99.90;;;9.42;100.00;98362.31;5141625;28;20708;-86
2023/02/19 05:19:43;;;;;;;3.70;3.50;;;8.70;99.90;;;9.50;100.00;98367.91;5141275;28;20259;-86
2023/02/19 05:22:17;;;;;;;3.42;3.22;;;8.80;99.90;;;9.38;100.00;98365.41;5138527;28;20199;-87
2023/02/19 05:24:51;;;;;;;3.10;2.90;;;8.70;99.90;;;9.50;100.00;98366.28;5141655;28;20753;-87
2023/02/19 05:27:25;;;;;;;3.40;3.20;;;8.80;99.90;;;9.44;100.00;98374.41;5140827;28;20235;-87
2023/02/19 05:29:58;;;;;;;3.50;3.30;;;8.70;99.90;;;9.45;100.00;98378.72;5137262;28;20642;-86
2023/02/19 05:32:32;;;;;;;3.60;3.30;;;8.70;99.90;;;9.40;100.00;98390.25;5142095;28;20223;-86
2023/02/19 05:35:05;;;;;;;3.70;3.50;;;8.70;99.90;;;9.23;100.00;98386.50;5141947;28;20303;-87
2023/02/19 05:37:39;;;;;;;3.50;3.30;;;8.60;99.90;;;9.21;100.00;98382.06;5136581;28;20266;-85
2023/02/19 05:40:13;;;;;;;3.43;3.23;;;8.60;99.90;;;9.16;100.00;98379.22;5136439;28;20228;-85
2023/02/19 05:42:46;;;;;;;3.97;3.77;;;8.60;99.90;;;9.10;100.00;98389.00;5142438;28;20195;-84
2023/02/19 05:45:19;;;;;;;3.50;3.30;;;8.50;99.90;;;9.16;100.00;98388.53;5139988;28;20481;-86
2023/02/19 05:47:53;;;;;;;3.10;2.90;;;8.60;99.90;;;9.14;100.00;98395.19;5143136;28;20775;-86
2023/02/19 05:50:26;;;;;;;3.60;3.33;;;8.50;99.90;;;9.15;100.00;98397.81;5142148;28;20643;-86
2023/02/19 05:53:00;;;;;;;2.70;2.50;;;8.50;99.90;;;9.08;100.00;98404.97;5135218;28;20239;-86
2023/02/19 05:55:36;;;;;;;3.20;2.90;;;8.50;99.90;;;9.00;100.00;98405.28;5132794;28;20245;-85
2023/02/19 05:58:09;;;;;;;2.70;2.60;;;8.40;99.90;;;8.98;100.00;98398.28;5141627;28;20290;-86
2023/02/19 06:00:42;;;;;;;2.63;2.43;;;8.50;99.90;;;9.01;100.00;98414.72;5139497;28;20203;-86
2023/02/19 06:03:16;;;;;;;2.57;2.37;;;8.40;99.90;;;9.05;100.00;98405.63;5135774;28;20283;-86
2023/02/19 06:05:49;;;;;;;2.10;2.00;;;8.40;99.90;;;8.99;100.00;98415.38;5127410;28;20220;-87
2023/02/19 06:08:22;;;;;;;1.90;1.80;;;8.40;99.90;;;8.89;100.00;98418.91;5140748;28;20267;-87
2023/02/19 06:10:58;;;;;;;2.00;1.90;;;8.30;99.90;;;8.90;100.00;98414.69;5141595;28;20214;-87
2023/02/19 06:13:31;;;;;;;1.80;1.70;;;8.30;99.90;;;8.84;100.00;98420.22;5140899;28;20716;-88
2023/02/19 06:16:05;;;;;;;1.93;1.83;;;8.30;99.90;;;8.80;100.00;98418.25;5137767;28;20228;-86
2023/02/19 06:18:40;;;;;;;2.07;1.97;;;8.20;99.90;;;8.79;100.00;98436.88;5142150;28;20282;-86
2023/02/19 06:21:15;;;;;;;1.63;1.60;;;8.30;99.90;;;8.75;100.00;98434.84;5137020;28;20237;-86
2023/02/19 06:23:48;;;;;;;2.00;1.90;;;8.20;99.90;;;8.75;100.00;98432.31;5137042;28;20728;-86
2023/02/19 06:26:25;;;;;;;1.57;1.57;;;8.20;99.90;;;8.92;100.00;98424.22;5145176;28;20204;-86
2023/02/19 06:28:58;;;;;;;1.97;1.87;;;8.30;99.90;;;8.83;100.00;98412.50;5145092;28;20635;-85
2023/02/19 06:31:31;;;;;;;1.87;1.77;;;8.20;99.90;;;8.91;100.00;98402.06;5142308;28;20303;-87
2023/02/19 06:34:05;;;;;;;1.90;1.80;;;8.20;99.90;;;8.90;100.00;98410.50;5142706;28;20227;-87
2023/02/19 06:36:38;;;;;;;1.83;1.80;;;8.30;99.90;;;8.96;100.00;98421.16;5141336;28;20600;-86
2023/02/19 06:39:11;;;;;;;1.67;1.67;;;8.20;99.90;;;8.91;100.00;98442.88;5143924;28;20199;-86
2023/02/19 06:41:46;;;;;;;1.60;1.60;;;8.30;99.90;;;8.97;100.00;98434.78;5143915;28;20224;-87
2023/02/19 06:44:20;;;;;;;1.67;1.67;;;8.30;99.90;;;8.96;100.00;98450.84;5146431;28;20298;-86
2023/02/19 06:46:55;;;;;;;1.90;1.90;;;8.30;99.90;;;8.98;100.00;98449.28;5144415;28;20649;-86
2023/02/19 06:49:29;;;;;;;2.00;1.90;;;8.30;99.90;;;9.01;100.00;98445.31;5146763;28;20218;-86
2023/02/19 06:52:02;;;;;;;1.70;1.70;;;8.30;99.90;;;8.95;100.00;98444.84;5146754;28;20652;-85
2023/02/19 06:54:35;;;;;;;1.87;1.77;;;8.30;99.90;;;8.91;100.00;98447.97;5142692;28;20235;-87
2023/02/19 06:57:10;;;;;;;1.80;1.70;;;8.30;99.90;;;8.76;100.00;98455.38;5146671;28;20299;-86
2023/02/19 06:59:43;;;;;;;1.80;1.80;;;8.20;99.90;;;8.81;100.00;98458.25;5142992;28;20210;-88
2023/02/19 07:02:16;;;;;;;1.70;1.70;;;8.20;99.90;;;8.88;100.00;98452.84;5144249;28;20210;-86
2023/02/19 07:04:50;;;;;;;1.70;1.60;;;8.30;99.90;;;8.88;100.00;98463.03;5147056;28;20935;-87
2023/02/19 07:07:23;;;;;;;1.67;1.67;;;8.20;99.90;;;8.92;100.00;98457.38;5143952;28;20690;-86
2023/02/19 07:09:56;;;;;;;1.60;1.60;;;8.30;99.90;;;8.91;100.00;98460.72;5144699;28;20200;-86
2023/02/19 07:12:30;;;;;;;1.90;1.80;;;8.30;99.90;;;8.86;100.00;98464.56;5148241;28;20258;-86
2023/02/19 07:15:04;;;;;;;1.70;1.70;;;8.20;99.90;;;8.80;100.00;98466.69;5142846;28;20223;-86
2023/02/19 07:17:37;;;;;;;1.53;1.53;;;8.20;99.90;;;8.93;100.00;98466.81;5145335;28;20224;-85
2023/02/19 07:20:11;;;;;;;1.70;1.70;;;8.30;99.90;;;9.02;100.00;98475.13;5143063;28;20684;-85
2023/02/19 07:22:44;;;;;;;1.87;1.77;;;8.30;99.90;;;9.09;100.00;98475.56;5139431;28;20207;-85
2023/02/19 07:25:18;;;;;;;2.00;1.90;;;8.30;99.90;;;8.96;100.00;98467.03;5146581;28;20311;-86
2023/02/19 07:27:52;;;;;;;1.83;1.77;;;8.30;99.90;;;9.07;100.00;98479.66;5140653;28;20243;-86
2023/02/19 07:30:25;;;;;;;1.70;1.70;;;8.30;99.90;;;8.88;100.00;98478.31;5143963;28;20202;-87
2023/02/19 07:32:59;;;;;;;2.77;2.13;;;8.30;99.90;;;8.88;100.00;98477.44;5142819;28;20299;-85
2023/02/19 07:35:32;;;;;;;1.63;1.63;;;8.40;99.90;;;9.02;100.00;98480.22;5144624;28;20327;-87
2023/02/19 07:38:05;;;;;;;1.83;1.80;;;8.40;99.90;;;9.02;100.00;98482.78;5144162;28;20231;-86
2023/02/19 07:40:38;;;;;;;1.90;1.80;;;8.50;99.90;;;9.15;100.00;98483.66;5142919;28;20291;-86
2023/02/19 07:43:13;;;;;;;1.90;1.80;;;8.50;99.90;;;9.14;100.00;98481.91;5142980;28;20231;-86
2023/02/19 07:45:46;;;;;;;1.93;1.87;;;8.60;99.90;;;9.33;100.00;98491.75;5138633;28;20230;-83
2023/02/19 07:48:20;;;;;;;2.10;1.93;;;8.60;99.90;;;9.28;100.00;98506.72;5142958;28;20290;-85
2023/02/19 07:50:54;;;;;;;1.87;1.77;;;8.70;99.90;;;9.14;100.00;98507.41;5139712;28;20688;-82
2023/02/19 07:53:28;;;;;;;1.93;1.83;;;8.60;99.90;;;9.07;100.00;98505.16;5141902;28;20223;-84
2023/02/19 07:56:04;;;;;;;1.80;1.70;;;8.50;99.90;;;9.32;100.00;98515.50;5142981;28;20313;-84
2023/02/19 07:58:48;;;;;;;1.90;1.90;;;8.60;99.90;;;9.14;100.00;98510.81;5146276;28;20203;-83
2023/02/19 08:02:58;;;;;;;2.33;2.23;;;8.60;99.90;;;9.13;100.00;98513.25;5140252;28;20243;-83
2023/02/19 08:04:16;;;;;;;2.30;2.20;;;8.60;99.90;;;9.28;100.00;98511.84;5140322;28;20256;-84
2023/02/19 08:06:49;;;;;;;2.30;2.20;;;8.60;99.90;;;9.21;100.00;98513.06;5144664;28;20200;-84
2023/02/19 08:09:22;;;;;;;1.90;1.80;;;8.70;99.90;;;9.31;100.00;98512.06;5146077;28;20295;-84
2023/02/19 08:14:47;;;;;;;2.23;2.00;;;8.70;99.90;;;9.30;100.00;98507.75;5138317;28;20224;-85
2023/02/19 08:17:20;;;;;;;2.40;2.30;;;8.80;99.90;;;9.40;100.00;98512.72;5147434;28;20678;-84
2023/02/19 08:19:53;;;;;;;2.03;1.93;;;8.90;99.90;;;9.50;100.00;98508.25;5140945;28;20207;-85
2023/02/19 08:22:27;;;;;;;2.47;2.30;;;8.90;99.90;;;9.54;100.00;98515.38;5136273;28;20204;-85
2023/02/19 08:25:00;;;;;;;2.28;2.17;;;8.90;99.90;;;9.45;100.00;98523.25;5140847;28;20666;-85
2023/02/19 08:27:33;;;;;;;2.47;2.33;;;8.80;99.90;;;9.55;100.00;98532.44;5143653;28;20214;-85
2023/02/19 08:30:09;;;;;;;2.20;2.10;;;8.80;99.90;;;9.54;100.00;98534.13;5143327;28;20199;-83
2023/02/19 08:32:42;;;;;;;2.33;2.20;;;8.90;99.90;;;9.55;100.00;98535.00;5140393;28;20211;-82
2023/02/19 08:35:16;;;;;;;2.67;2.47;;;8.90;99.90;;;9.64;100.00;98539.13;5138036;28;20232;-83
2023/02/19 08:37:49;;;;;;;2.80;2.60;;;9.00;99.90;;;9.67;100.00;98549.53;5139570;28;20204;-83
2023/02/19 08:40:22;;;;;;;2.67;2.35;;;9.00;99.90;;;9.67;100.00;98554.66;5135912;28;20342;-83
2023/02/19 08:42:56;;;;;;;2.85;2.50;;;9.10;99.90;;;9.83;100.00;98556.63;5136063;28;20208;-87
2023/02/19 08:45:30;;;;;;;2.25;2.05;;;9.10;99.90;;;9.86;100.00;98569.59;5141149;28;20216;-86
2023/02/19 08:48:04;;;;;;;2.42;2.15;;;9.10;99.90;;;9.83;100.00;98569.38;5142697;28;20638;-86
2023/02/19 08:50:38;;;;;;;2.83;2.70;;;9.20;99.90;;;9.74;100.00;98573.84;5138716;28;20197;-84
2023/02/19 08:53:11;;;;;;;2.90;2.80;;;9.20;99.90;;;9.66;100.00;98567.28;5141396;28;20200;-84
2023/02/19 08:55:45;;;;;;;3.00;2.80;;;9.10;99.90;;;9.79;100.00;98580.16;5140945;28;20236;-81
2023/02/19 08:58:18;;;;;;;3.17;2.70;;;9.20;99.90;;;9.77;100.00;98571.50;5139514;28;20243;-83
2023/02/19 09:00:53;;;;;;;2.40;2.30;;;9.10;99.90;;;9.83;100.00;98586.38;5141937;28;20291;-84
2023/02/19 09:03:26;;;;;;;2.95;2.70;;;9.20;99.90;;;9.88;100.00;98590.16;5145471;28;20200;-84
2023/02/19 09:05:59;;;;;;;2.50;2.30;;;9.20;99.90;;;9.90;100.00;98583.47;5144504;28;20251;-84
2023/02/19 09:08:32;;;;;;;2.47;2.35;;;9.20;99.90;;;10.01;100.00;98586.78;5145653;28;20798;-84
2023/02/19 09:11:06;;;;;;;2.80;2.60;;;9.30;99.90;;;10.04;100.00;98587.00;5145430;28;20695;-84
2023/02/19 09:13:40;;;;;;;3.00;2.80;;;9.30;99.90;;;9.94;100.00;98595.69;5144071;28;20229;-84
2023/02/19 09:16:14;;;;;;;2.95;2.75;;;9.20;99.90;;;9.92;100.00;98594.69;5146214;28;20250;-83
2023/02/19 09:18:48;;;;;;;2.90;2.70;;;9.20;99.90;;;9.82;100.00;98598.25;5140897;28;20204;-82
2023/02/19 09:21:21;;;;;;;3.40;3.20;;;9.20;99.90;;;9.95;100.00;98601.69;5142948;28;20664;-83
2023/02/19 09:23:54;;;;;;;3.10;2.90;;;9.20;99.90;;;9.99;100.00;98603.69;5143630;28;20290;-84
2023/02/19 09:26:27;;;;;;;3.00;2.72;;;9.20;99.90;;;10.07;100.00;98606.00;5140584;28;20239;-85
2023/02/19 09:29:01;;;;;;;2.88;2.67;;;9.30;99.90;;;10.18;100.00;98611.84;5138874;28;20273;-83
2023/02/19 09:31:35;;;;;;;3.30;3.00;;;9.30;99.90;;;10.28;100.00;98611.75;5140376;28;20294;-84
2023/02/19 09:34:10;;;;;;;2.85;2.70;;;9.40;99.90;;;10.18;100.00;98606.75;5141953;28;20257;-85
2023/02/19 09:36:43;;;;;;;2.90;2.70;;;9.40;99.90;;;10.15;100.00;98606.53;5134884;28;20239;-87
2023/02/19 09:39:16;;;;;;;2.67;2.55;;;9.40;99.90;;;10.08;100.00;98614.56;5141788;28;20232;-86
2023/02/19 09:41:54;;;;;;;2.30;2.20;;;9.30;99.90;;;10.12;100.00;98611.41;5137554;28;20614;-85
2023/02/19 09:44:32;;;;;;;2.20;2.10;;;9.40;99.90;;;10.22;100.00;98623.19;5138874;28;20314;-86
2023/02/19 09:47:16;;;;;;;2.30;2.10;;;9.50;99.90;;;10.27;100.00;98621.88;5141552;28;20206;-85
2023/02/19 09:49:54;;;;;;;2.35;2.15;;;9.50;99.90;;;10.34;100.00;98624.09;5138723;28;20247;-83
2023/02/19 09:52:36;;;;;;;2.33;2.22;;;9.50;99.90;;;10.49;96.89;98631.94;5133186;28;20674;-84
2023/02/19 09:55:18;;;;;;;2.72;2.17;;;9.80;99.90;;;10.37;99.46;98631.97;5138469;28;20249;-84
2023/02/19 09:57:52;;;;;;;2.25;2.15;;;9.70;99.90;;;10.52;99.57;98633.03;5137426;28;20218;-84
2023/02/19 10:00:29;;;;;;;2.85;2.00;;;9.70;99.90;;;10.47;100.00;98641.16;5137586;28;20740;-85
2023/02/19 10:03:09;;;;;;;2.28;2.10;;;9.70;99.90;;;10.49;100.00;98650.69;5143710;28;20695;-86
2023/02/19 10:05:43;;;;;;;2.63;2.20;;;9.80;99.90;;;10.54;100.00;98651.91;5142567;28;20698;-85
2023/02/19 10:08:20;;;;;;;2.30;2.20;;;9.80;99.90;;;10.66;100.00;98644.22;5141649;28;20200;-85
2023/02/19 10:10:54;;;;;;;2.33;2.15;;;9.80;99.90;;;10.73;97.97;98651.53;5142266;28;20212;-85
2023/02/19 10:13:32;;;;;;;2.67;2.47;;;10.00;99.90;;;10.64;98.88;98644.88;5145120;28;20298;-87
2023/02/19 10:16:14;;;;;;;2.45;2.25;;;10.00;99.90;;;10.76;100.00;98628.72;5141102;28;20278;-87
2023/02/19 10:18:48;;;;;;;2.80;2.22;;;10.00;99.90;;;10.78;98.53;98637.38;5146259;28;20226;-86
2023/02/19 10:21:24;;;;;;;2.33;1.90;;;10.00;99.90;;;10.86;98.44;98642.16;5139176;28;20255;-87
2023/02/19 10:24:01;;;;;;;2.40;2.03;;;10.10;99.90;;;10.90;96.81;98641.56;5142127;28;20266;-86
2023/02/19 10:26:35;;;;;;;2.85;2.28;;;10.10;99.90;;;11.00;95.93;98638.84;5142532;28;20196;-86
2023/02/19 10:29:11;;;;;;;3.53;2.15;;;10.20;99.90;;;11.11;93.13;98640.47;5146904;28;20226;-85
2023/02/19 10:31:44;;;;;;;3.65;1.85;;;10.20;99.90;;;11.11;88.40;98640.47;5150789;28;20270;-83
2023/02/19 10:34:22;;;;;;;2.13;1.90;;;10.20;99.90;;;11.07;92.32;98643.59;5131521;28;20591;-85
2023/02/19 10:36:56;;;;;;;2.15;1.95;;;10.30;99.90;;;11.06;90.79;98646.94;5133809;28;20192;-84
2023/02/19 10:39:41;;;;;;;1.98;1.83;;;10.20;99.90;;;11.26;92.13;98659.41;5142258;28;20683;-86
2023/02/19 10:42:21;;;;;;;1.85;1.75;;;10.40;99.90;;;11.22;92.73;98643.75;5135374;28;20222;-87
2023/02/19 10:45:00;;;;;;;2.85;1.88;;;10.30;99.90;;;11.24;89.68;98640.50;5136670;28;20614;-86
2023/02/19 10:47:34;;;;;;;2.22;1.80;;;10.30;99.90;;;11.13;88.30;98645.69;5132896;28;20212;-86
2023/02/19 10:50:26;;;;;;;3.45;1.77;;;10.30;99.90;;;11.20;89.75;98647.88;5141293;28;20251;-87
2023/02/19 10:53:01;;;;;;;3.10;1.70;;;10.30;99.90;;;11.10;88.26;98654.03;5137434;28;21010;-86
2023/02/19 10:55:36;;;;;;;2.80;1.92;;;10.20;99.90;;;11.14;93.29;98665.38;5137971;28;20219;-87
2023/02/19 10:58:25;;;;;;;1.90;1.67;;;10.30;99.90;;;11.22;85.98;98654.88;5139340;28;20212;-87
2023/02/19 11:01:19;;;;;;;2.55;1.83;;;10.30;99.90;;;11.20;83.94;98658.13;5139393;28;20288;-86
2023/02/19 11:04:18;;;;;;;1.88;1.73;;;10.30;99.90;;;11.19;83.16;98659.78;5137252;28;20200;-87
2023/02/19 11:06:51;;;;;;;1.70;1.60;;;10.30;99.90;;;11.15;83.62;98657.78;5139501;28;20202;-87
2023/02/19 11:09:29;;;;;;;2.65;2.10;;;10.30;99.90;;;11.08;86.57;98659.84;5137866;28;20356;-87
2023/02/19 11:12:03;;;;;;;2.90;2.03;;;10.20;99.90;;;11.07;86.61;98652.94;5142490;28;20586;-87
2023/02/19 11:14:37;;;;;;;2.75;1.73;;;10.20;99.90;;;11.05;86.47;98645.19;5142088;28;20263;-86
2023/02/19 11:17:24;;;;;;;2.20;1.98;;;10.20;99.90;;;11.05;84.29;98645.19;5144256;28;20724;-86
2023/02/19 11:20:09;;;;;;;3.17;1.70;;;10.20;99.90;;;11.20;80.66;98653.88;5146038;28;20235;-87